Time;durP1;ratioP1;P1;durP2;ratioP2;P2;SDS_P1;SDS_P2;PMS_P1;PMS_P2;Temp;Humidity;BMP_temperature;BMP_pressure;BME280_temperature;BME280_humidity;BME280_pressure;Samples;Min_cycle;Max_cycle;Signal;HPM_P1;HPM_P2
2023/03/14 00:01:55;;;;;;;26.48;6.30;;;10.20;99.90;;;;;;5073303;28;20048;-71
2023/03/14 00:04:21;;;;;;;21.23;5.30;;;10.30;99.90;;;;;;5043501;28;20044;-70
2023/03/14 00:06:47;;;;;;;21.27;5.78;;;10.30;99.90;;;;;;5034797;28;20044;-71
2023/03/14 00:09:13;;;;;;;21.23;5.47;;;10.40;99.90;;;;;;5050508;28;20041;-71
2023/03/14 00:11:39;;;;;;;19.05;4.95;;;10.50;99.90;;;;;;5044341;28;20049;-71
2023/03/14 00:14:05;;;;;;;20.27;5.60;;;10.50;99.90;;;;;;5077715;28;20130;-71
2023/03/14 00:16:30;;;;;;;21.13;5.05;;;10.50;99.90;;;;;;5069048;28;20044;-71
2023/03/14 00:18:59;;;;;;;16.67;4.72;;;10.60;99.90;;;;;;5050926;28;20116;-71
2023/03/14 00:21:25;;;;;;;23.73;6.10;;;10.60;99.90;;;;;;5074819;28;20048;-71
2023/03/14 00:23:51;;;;;;;19.00;4.72;;;10.60;99.90;;;;;;5060543;28;20102;-71
2023/03/14 00:26:19;;;;;;;21.77;5.25;;;10.70;99.90;;;;;;5051402;28;20036;-71
2023/03/14 00:28:46;;;;;;;23.75;5.85;;;10.80;99.90;;;;;;5060880;28;20124;-71
2023/03/14 00:31:15;;;;;;;18.95;5.10;;;10.80;99.90;;;;;;5074449;28;20489;-71
2023/03/14 00:33:41;;;;;;;20.10;6.10;;;10.80;99.90;;;;;;5066261;28;20039;-71
2023/03/14 00:36:13;;;;;;;23.27;5.65;;;10.90;99.90;;;;;;5075567;28;20101;-71
2023/03/14 00:38:41;;;;;;;18.30;5.45;;;10.90;99.90;;;;;;5051288;28;20264;-71
2023/03/14 00:41:13;;;;;;;21.15;5.07;;;10.90;99.90;;;;;;5073993;28;20044;-72
2023/03/14 00:43:39;;;;;;;21.95;5.68;;;10.90;99.90;;;;;;5101510;27;20051;-71
2023/03/14 00:46:05;;;;;;;17.15;4.82;;;10.90;99.90;;;;;;5040737;28;20040;-71
2023/03/14 00:48:31;;;;;;;21.52;6.45;;;11.00;99.90;;;;;;5052311;28;20167;-72
2023/03/14 00:50:57;;;;;;;20.48;5.55;;;11.10;99.90;;;;;;5051141;28;20127;-72
2023/03/14 00:53:23;;;;;;;24.75;5.65;;;11.20;99.90;;;;;;5043119;28;20037;-71
2023/03/14 00:55:49;;;;;;;21.58;6.38;;;11.20;99.90;;;;;;5046967;28;20108;-71
2023/03/14 00:58:16;;;;;;;21.15;5.32;;;11.20;99.90;;;;;;5048666;28;20581;-71
2023/03/14 01:00:43;;;;;;;23.35;5.95;;;11.20;99.90;;;;;;5074622;28;20063;-72
2023/03/14 01:03:10;;;;;;;25.83;6.22;;;11.10;99.90;;;;;;5051466;28;20498;-71
2023/03/14 01:05:36;;;;;;;21.00;6.20;;;11.10;99.90;;;;;;5066944;28;20087;-71
2023/03/14 01:08:03;;;;;;;24.55;5.60;;;11.00;99.90;;;;;;5066234;28;20032;-71
2023/03/14 01:10:29;;;;;;;17.67;5.00;;;11.00;99.90;;;;;;5047735;28;20074;-71
2023/03/14 01:12:57;;;;;;;18.88;5.75;;;10.90;99.90;;;;;;5069438;28;20087;-71
2023/03/14 01:15:26;;;;;;;22.10;6.07;;;10.90;99.90;;;;;;5053552;28;20091;-71
2023/03/14 01:17:52;;;;;;;19.42;5.82;;;10.90;99.90;;;;;;5057329;28;20308;-71
2023/03/14 01:20:18;;;;;;;21.13;5.90;;;10.80;99.90;;;;;;5039978;28;20049;-71
2023/03/14 01:22:44;;;;;;;22.05;6.18;;;10.80;99.90;;;;;;5019550;28;20504;-71
2023/03/14 01:25:13;;;;;;;19.73;6.00;;;10.80;99.90;;;;;;5057905;28;20494;-71
2023/03/14 01:27:39;;;;;;;19.80;5.97;;;10.80;99.90;;;;;;5049883;28;20136;-71
2023/03/14 01:30:07;;;;;;;19.52;6.55;;;10.80;99.90;;;;;;5058572;28;20065;-72
2023/03/14 01:32:33;;;;;;;20.23;5.88;;;10.80;99.90;;;;;;5040571;28;20048;-72
2023/03/14 01:34:59;;;;;;;19.15;6.70;;;10.80;99.90;;;;;;5055408;28;20044;-72
2023/03/14 01:37:25;;;;;;;21.20;6.10;;;10.80;99.90;;;;;;5051394;28;20058;-72
2023/03/14 01:40:00;;;;;;;17.00;4.90;;;10.80;99.90;;;;;;5056840;28;20139;-71
2023/03/14 01:42:26;;;;;;;20.75;5.63;;;10.80;99.90;;;;;;5055603;28;20410;-72
2023/03/14 01:44:53;;;;;;;15.82;4.78;;;10.80;99.90;;;;;;5042224;28;20041;-72
2023/03/14 01:47:19;;;;;;;14.20;4.47;;;10.80;99.90;;;;;;5042334;28;20041;-73
2023/03/14 01:49:51;;;;;;;20.25;5.35;;;10.70;99.90;;;;;;5047899;28;20063;-72
2023/03/14 01:52:24;;;;;;;15.20;4.70;;;10.70;99.90;;;;;;5074795;28;20083;-73
2023/03/14 01:55:03;;;;;;;16.50;4.47;;;10.70;99.90;;;;;;5066723;28;20051;-71
2023/03/14 01:57:36;;;;;;;19.70;5.57;;;10.70;99.90;;;;;;5051146;28;20055;-73
2023/03/14 02:00:11;;;;;;;16.30;4.43;;;10.70;99.90;;;;;;5058028;28;20123;-72
2023/03/14 02:02:39;;;;;;;13.27;4.22;;;10.70;99.90;;;;;;5067455;28;20051;-73
2023/03/14 02:05:06;;;;;;;15.73;4.57;;;10.60;99.90;;;;;;5055653;28;20175;-72
2023/03/14 02:07:57;;;;;;;17.60;5.00;;;10.60;99.90;;;;;;5050802;28;20391;-71
2023/03/14 02:10:30;;;;;;;20.02;4.97;;;10.60;99.90;;;;;;5064852;28;20051;-72
2023/03/14 02:12:59;;;;;;;18.02;4.97;;;10.60;99.90;;;;;;5054424;28;20074;-72
2023/03/14 02:15:25;;;;;;;14.15;4.18;;;10.60;99.90;;;;;;5060654;28;20055;-71
2023/03/14 02:17:54;;;;;;;16.15;4.45;;;10.50;99.90;;;;;;5068919;28;20056;-71
2023/03/14 02:20:27;;;;;;;16.25;4.30;;;10.60;99.90;;;;;;5041460;28;20084;-72
2023/03/14 02:22:53;;;;;;;14.98;3.75;;;10.50;99.90;;;;;;5056808;28;20051;-72
2023/03/14 02:25:32;;;;;;;16.40;4.72;;;10.50;99.90;;;;;;5054682;28;20078;-72
2023/03/14 02:27:58;;;;;;;14.20;4.45;;;10.50;99.90;;;;;;5065887;28;20036;-71
2023/03/14 02:30:27;;;;;;;15.88;5.35;;;10.50;99.90;;;;;;5036854;28;20624;-72
2023/03/14 02:33:09;;;;;;;17.17;4.82;;;10.40;99.90;;;;;;5052971;28;20131;-73
2023/03/14 02:35:58;;;;;;;18.15;4.90;;;10.40;99.90;;;;;;5051990;28;20052;-71
2023/03/14 02:38:36;;;;;;;15.80;4.85;;;10.40;99.90;;;;;;5062989;28;20041;-70
2023/03/14 02:41:02;;;;;;;14.90;4.78;;;10.40;99.90;;;;;;5057358;28;20048;-72
2023/03/14 02:43:28;;;;;;;17.73;4.88;;;10.40;99.90;;;;;;5068692;28;20074;-71
2023/03/14 02:45:54;;;;;;;16.73;5.55;;;10.30;99.90;;;;;;5047639;28;20068;-71
2023/03/14 02:48:26;;;;;;;18.50;5.53;;;10.30;99.90;;;;;;5077539;28;20055;-71
2023/03/14 02:50:59;;;;;;;18.27;5.68;;;10.30;99.90;;;;;;5074372;28;20051;-71
2023/03/14 02:53:31;;;;;;;15.73;5.60;;;10.30;99.90;;;;;;5084753;28;20056;-72
2023/03/14 02:55:57;;;;;;;16.90;5.90;;;10.30;99.90;;;;;;5056022;28;20079;-72
2023/03/14 02:58:23;;;;;;;17.02;6.05;;;10.30;99.90;;;;;;5105651;27;20038;-72
2023/03/14 03:00:49;;;;;;;16.52;5.78;;;10.30;99.90;;;;;;5054421;28;20657;-72
2023/03/14 03:03:15;;;;;;;13.07;5.43;;;10.30;99.90;;;;;;5089248;28;20192;-73
2023/03/14 03:05:42;;;;;;;14.30;5.82;;;10.20;99.90;;;;;;5081525;28;20039;-72
2023/03/14 03:08:08;;;;;;;13.40;5.38;;;10.20;99.90;;;;;;5053500;28;20062;-72
2023/03/14 03:10:34;;;;;;;10.75;5.10;;;10.10;99.90;;;;;;5067822;28;20040;-72
2023/03/14 03:13:00;;;;;;;12.70;5.82;;;10.10;99.90;;;;;;5055723;28;20056;-72
2023/03/14 03:15:33;;;;;;;10.57;4.93;;;10.10;99.90;;;;;;5051921;28;20031;-72
2023/03/14 03:17:58;;;;;;;13.63;5.30;;;10.10;99.90;;;;;;5060646;28;20122;-72
2023/03/14 03:20:27;;;;;;;13.40;4.75;;;10.10;99.90;;;;;;5064047;28;20103;-72
2023/03/14 03:22:53;;;;;;;12.40;5.30;;;10.00;99.90;;;;;;5056350;28;20098;-72
2023/03/14 03:25:22;;;;;;;12.40;4.95;;;10.00;99.90;;;;;;5066782;28;20437;-72
2023/03/14 03:27:48;;;;;;;12.00;5.07;;;10.00;99.90;;;;;;5089370;28;20048;-72
2023/03/14 03:30:15;;;;;;;12.20;5.47;;;9.90;99.90;;;;;;5052831;28;20066;-72
2023/03/14 03:32:40;;;;;;;14.38;5.47;;;9.90;99.90;;;;;;5053750;28;20048;-71
2023/03/14 03:35:06;;;;;;;13.38;5.80;;;9.90;99.90;;;;;;5056825;28;20104;-72
2023/03/14 03:37:33;;;;;;;15.20;6.32;;;9.90;99.90;;;;;;5048803;28;20695;-72
2023/03/14 03:40:06;;;;;;;11.93;6.40;;;9.90;99.90;;;;;;5068327;28;20040;-73
2023/03/14 03:42:33;;;;;;;14.95;5.65;;;9.90;99.90;;;;;;5066014;28;20044;-72
2023/03/14 03:45:00;;;;;;;11.35;6.80;;;9.80;99.90;;;;;;5075750;28;20119;-72
2023/03/14 03:47:30;;;;;;;18.92;6.93;;;9.80;99.90;;;;;;5090116;28;20657;-71
2023/03/14 03:49:56;;;;;;;;;;;9.80;99.90;;;;;;5084554;28;20162;-73
2023/03/14 03:52:22;;;;;;;16.35;7.65;;;9.80;99.90;;;;;;5043169;28;20010;-72
2023/03/14 03:54:48;;;;;;;17.60;7.47;;;9.80;99.90;;;;;;5038909;28;20181;-72
2023/03/14 03:57:14;;;;;;;16.05;7.55;;;9.80;99.90;;;;;;5060756;28;20044;-71
2023/03/14 03:59:40;;;;;;;17.67;7.40;;;9.70;99.90;;;;;;5067596;28;20123;-72
2023/03/14 04:02:07;;;;;;;17.23;7.88;;;9.70;99.90;;;;;;5061805;28;20131;-72
2023/03/14 04:04:33;;;;;;;16.52;7.95;;;9.70;99.90;;;;;;5053458;28;20044;-72
2023/03/14 04:06:59;;;;;;;14.35;7.45;;;9.70;99.90;;;;;;5087846;28;20070;-72
2023/03/14 04:09:27;;;;;;;15.13;7.60;;;9.70;99.90;;;;;;5082192;28;20048;-72
2023/03/14 04:11:53;;;;;;;17.85;7.53;;;9.60;99.90;;;;;;5054785;28;20175;-72
2023/03/14 04:14:19;;;;;;;17.25;7.43;;;9.60;99.90;;;;;;5057401;28;20119;-73
2023/03/14 04:16:45;;;;;;;18.63;7.90;;;9.50;99.90;;;;;;5059415;28;20691;-72
2023/03/14 04:19:10;;;;;;;19.88;7.35;;;9.50;99.90;;;;;;5032317;28;20497;-73
2023/03/14 04:21:40;;;;;;;15.85;7.70;;;9.50;99.90;;;;;;5043172;28;20100;-72
2023/03/14 04:24:06;;;;;;;14.63;6.20;;;9.50;99.90;;;;;;5046679;28;20044;-72
2023/03/14 04:26:31;;;;;;;16.10;6.43;;;9.40;99.90;;;;;;5050567;28;20066;-73
2023/03/14 04:28:57;;;;;;;16.13;6.20;;;9.40;99.90;;;;;;5070588;28;20044;-71
2023/03/14 04:31:23;;;;;;;15.35;5.90;;;9.40;99.90;;;;;;5054821;28;20036;-72
2023/03/14 04:33:49;;;;;;;14.05;5.75;;;9.40;99.90;;;;;;5060100;28;20499;-71
2023/03/14 04:36:15;;;;;;;14.98;5.68;;;9.40;99.90;;;;;;5054583;28;20512;-73
2023/03/14 04:38:40;;;;;;;13.38;5.72;;;9.40;99.90;;;;;;5057435;28;20063;-72
2023/03/14 04:41:06;;;;;;;14.60;5.85;;;9.40;99.90;;;;;;5068934;28;20097;-71
2023/03/14 04:43:32;;;;;;;15.63;6.40;;;9.40;99.90;;;;;;5037367;28;20469;-72
2023/03/14 04:45:58;;;;;;;13.43;6.05;;;9.40;99.90;;;;;;5082303;28;20089;-73
2023/03/14 04:48:25;;;;;;;12.70;5.82;;;9.40;99.90;;;;;;5059311;28;20056;-71
2023/03/14 04:50:52;;;;;;;15.60;6.30;;;9.40;99.90;;;;;;5094680;27;20051;-72
2023/03/14 04:53:18;;;;;;;15.32;6.53;;;9.30;99.90;;;;;;5063013;28;20544;-72
2023/03/14 04:55:53;;;;;;;14.95;7.30;;;9.30;99.90;;;;;;5084061;28;20113;-72
2023/03/14 04:58:19;;;;;;;15.02;7.22;;;9.30;99.90;;;;;;5094727;28;20044;-72
2023/03/14 05:00:46;;;;;;;14.57;7.22;;;9.30;99.90;;;;;;5058354;28;20552;-73
2023/03/14 05:03:16;;;;;;;18.23;8.40;;;9.30;99.90;;;;;;5053954;28;20079;-73
2023/03/14 05:05:42;;;;;;;17.52;7.95;;;9.30;99.90;;;;;;5045283;28;20149;-72
2023/03/14 05:08:11;;;;;;;18.40;8.27;;;9.30;99.90;;;;;;5103376;27;20032;-72
2023/03/14 05:10:37;;;;;;;12.57;7.28;;;9.30;99.90;;;;;;5045163;28;20059;-72
2023/03/14 05:13:03;;;;;;;13.55;7.22;;;9.30;99.90;;;;;;5059797;28;20045;-72
2023/03/14 05:15:29;;;;;;;15.50;7.93;;;9.30;99.90;;;;;;5098353;28;20043;-72
2023/03/14 05:17:58;;;;;;;18.33;7.60;;;9.30;99.90;;;;;;5069706;28;20043;-72
2023/03/14 05:20:23;;;;;;;13.55;7.47;;;9.30;99.90;;;;;;5051643;28;20043;-72
2023/03/14 05:22:49;;;;;;;15.88;7.35;;;9.30;99.90;;;;;;5100646;28;20048;-72
2023/03/14 05:25:15;;;;;;;19.00;7.80;;;9.50;99.90;;;;;;5043451;28;20032;-72
2023/03/14 05:27:41;;;;;;;15.75;7.28;;;9.40;99.90;;;;;;5086552;28;20036;-73
2023/03/14 05:30:08;;;;;;;15.80;7.93;;;9.40;99.90;;;;;;5045172;28;20044;-72
2023/03/14 05:32:34;;;;;;;19.77;8.63;;;9.40;99.90;;;;;;5057448;28;20773;-72
2023/03/14 05:35:00;;;;;;;16.10;8.05;;;9.40;99.90;;;;;;5025262;28;20040;-71
2023/03/14 05:37:26;;;;;;;16.23;9.05;;;9.40;99.90;;;;;;5040409;28;20044;-71
2023/03/14 05:39:52;;;;;;;14.90;9.13;;;9.40;99.90;;;;;;5055074;28;20046;-73
2023/03/14 05:42:18;;;;;;;19.55;8.93;;;9.40;99.90;;;;;;5045503;28;20048;-72
2023/03/14 05:44:44;;;;;;;18.90;9.90;;;9.30;99.90;;;;;;5028952;28;20835;-71
2023/03/14 05:47:10;;;;;;;19.52;9.88;;;9.30;99.90;;;;;;5066367;28;20072;-72
2023/03/14 05:49:36;;;;;;;17.63;9.70;;;9.30;99.90;;;;;;5083182;28;20119;-71
2023/03/14 05:52:02;;;;;;;20.38;9.85;;;9.30;99.90;;;;;;5065648;28;20577;-71
2023/03/14 05:54:28;;;;;;;20.48;10.48;;;9.30;99.90;;;;;;5058716;28;20044;-72
2023/03/14 05:56:53;;;;;;;18.40;10.07;;;9.30;99.90;;;;;;5062200;28;20040;-71
2023/03/14 05:59:19;;;;;;;16.92;9.95;;;9.20;99.90;;;;;;5045083;28;20116;-71
2023/03/14 06:01:45;;;;;;;18.63;9.90;;;9.20;99.90;;;;;;5068596;28;20066;-72
2023/03/14 06:04:11;;;;;;;18.20;10.15;;;9.20;99.90;;;;;;5030192;28;20588;-71
2023/03/14 06:06:36;;;;;;;15.82;9.18;;;9.20;99.90;;;;;;5035446;28;20036;-72
2023/03/14 06:09:02;;;;;;;18.75;10.32;;;9.20;99.90;;;;;;5077994;28;20132;-71
2023/03/14 06:11:28;;;;;;;16.35;9.80;;;9.20;99.90;;;;;;5052498;28;20732;-72
2023/03/14 06:13:57;;;;;;;15.48;8.70;;;9.20;99.90;;;;;;5090596;28;20057;-72
2023/03/14 06:16:22;;;;;;;15.45;7.90;;;9.20;99.90;;;;;;5026156;28;20054;-73
2023/03/14 06:18:48;;;;;;;12.23;7.60;;;9.20;99.90;;;;;;5038306;28;20757;-73
2023/03/14 06:21:15;;;;;;;16.95;8.82;;;9.20;99.90;;;;;;5039963;28;20203;-71
2023/03/14 06:23:41;;;;;;;14.93;8.32;;;9.20;99.90;;;;;;5070637;28;20036;-72
2023/03/14 06:26:07;;;;;;;15.32;8.55;;;9.20;99.90;;;;;;5081190;28;20051;-72
2023/03/14 06:28:32;;;;;;;14.32;8.27;;;9.20;99.90;;;;;;5066058;28;20036;-72
2023/03/14 06:30:59;;;;;;;11.85;7.57;;;9.20;99.90;;;;;;5048362;28;20044;-71
2023/03/14 06:33:25;;;;;;;12.80;6.60;;;9.10;99.90;;;;;;5101420;27;20720;-71
2023/03/14 06:35:51;;;;;;;10.70;6.60;;;9.20;99.90;;;;;;5067976;28;20047;-72
2023/03/14 06:38:16;;;;;;;12.95;6.45;;;9.20;99.90;;;;;;5060466;28;20188;-72
2023/03/14 06:40:42;;;;;;;10.55;6.22;;;9.20;99.90;;;;;;5090445;27;20044;-75
2023/03/14 06:43:08;;;;;;;11.85;5.85;;;9.20;99.90;;;;;;5029999;28;20044;-72
2023/03/14 06:45:34;;;;;;;12.02;6.53;;;9.20;99.90;;;;;;5027135;28;20047;-71
2023/03/14 06:48:00;;;;;;;12.65;6.63;;;9.20;99.90;;;;;;5044740;28;20174;-72
2023/03/14 06:50:26;;;;;;;13.10;7.28;;;9.10;99.90;;;;;;5033827;28;20139;-71
2023/03/14 06:52:51;;;;;;;15.98;8.70;;;9.20;99.90;;;;;;5057417;28;20055;-71
2023/03/14 06:55:17;;;;;;;15.60;8.02;;;9.10;99.90;;;;;;5051702;28;20305;-70
2023/03/14 06:57:43;;;;;;;19.83;9.00;;;9.10;99.90;;;;;;5044697;28;20044;-68
2023/03/14 07:00:12;;;;;;;16.25;8.18;;;9.10;99.90;;;;;;5031162;28;20083;-71
2023/03/14 07:02:38;;;;;;;12.18;7.00;;;9.10;99.90;;;;;;5020763;28;20124;-74
2023/03/14 07:05:05;;;;;;;12.60;5.40;;;9.10;99.90;;;;;;5056508;28;20065;-75
2023/03/14 07:07:31;;;;;;;11.85;4.85;;;9.10;99.90;;;;;;5059103;28;20102;-73
2023/03/14 07:09:57;;;;;;;9.32;4.85;;;9.10;99.90;;;;;;5070730;28;20231;-73
2023/03/14 07:12:22;;;;;;;9.93;5.60;;;9.10;99.90;;;;;;5026875;28;20431;-72
2023/03/14 07:14:48;;;;;;;7.32;3.45;;;9.00;99.90;;;;;;5029664;28;20037;-75
2023/03/14 07:17:14;;;;;;;6.35;2.00;;;9.00;99.90;;;;;;5025907;28;20048;-71
2023/03/14 07:19:42;;;;;;;7.68;1.88;;;8.80;99.90;;;;;;5043578;28;20040;-72
2023/03/14 07:22:08;;;;;;;6.97;1.55;;;8.50;99.90;;;;;;5023738;28;20050;-73
2023/03/14 07:24:34;;;;;;;12.55;2.30;;;8.10;99.90;;;;;;5071800;28;20051;-72
2023/03/14 07:27:00;;;;;;;6.40;1.40;;;7.90;99.90;;;;;;5054255;28;20052;-72
2023/03/14 07:29:26;;;;;;;9.52;1.92;;;7.60;99.90;;;;;;5040412;28;20510;-73
2023/03/14 07:31:51;;;;;;;9.35;1.65;;;7.40;99.90;;;;;;5038701;28;20461;-74
2023/03/14 07:34:17;;;;;;;8.15;2.10;;;7.30;99.90;;;;;;5059300;28;20481;-76
2023/03/14 07:36:43;;;;;;;8.20;1.40;;;7.10;99.90;;;;;;5042721;28;20079;-73
2023/03/14 07:39:09;;;;;;;11.45;1.60;;;7.00;99.90;;;;;;5043063;28;20456;-73
2023/03/14 07:41:35;;;;;;;8.88;1.27;;;6.80;99.90;;;;;;5044174;28;20048;-71
2023/03/14 07:44:01;;;;;;;8.70;1.50;;;6.70;99.90;;;;;;5041340;28;20044;-72
2023/03/14 07:46:29;;;;;;;8.20;1.38;;;6.50;99.90;;;;;;5055039;28;20076;-74
2023/03/14 07:48:55;;;;;;;8.40;0.98;;;6.30;99.90;;;;;;5046169;28;20051;-73
2023/03/14 07:51:21;;;;;;;8.38;1.17;;;6.10;99.90;;;;;;5062080;28;20059;-73
2023/03/14 07:53:50;;;;;;;2.67;0.50;;;6.00;99.90;;;;;;5033373;28;20041;-79
2023/03/14 07:56:15;;;;;;;4.38;0.70;;;5.80;99.90;;;;;;5043096;28;20044;-74
2023/03/14 07:58:41;;;;;;;4.63;1.48;;;5.50;99.90;;;;;;5029217;28;20028;-72
2023/03/14 08:01:07;;;;;;;5.07;1.00;;;5.40;99.90;;;;;;5066963;28;20513;-77
2023/03/14 08:03:36;;;;;;;4.15;0.90;;;5.30;99.90;;;;;;5035502;28;20048;-75
2023/03/14 08:06:01;;;;;;;3.70;0.50;;;5.20;99.90;;;;;;5070015;28;20357;-75
2023/03/14 08:08:27;;;;;;;4.78;0.73;;;5.10;99.90;;;;;;5049979;28;20059;-76
2023/03/14 08:10:53;;;;;;;4.85;0.75;;;5.00;99.90;;;;;;5069956;28;20052;-73
2023/03/14 08:13:19;;;;;;;4.20;0.90;;;5.00;99.90;;;;;;5050129;28;20467;-71
2023/03/14 08:15:48;;;;;;;4.85;0.90;;;5.00;99.90;;;;;;5098232;28;20074;-73
2023/03/14 08:18:14;;;;;;;5.07;0.75;;;5.00;99.90;;;;;;5062701;28;20820;-74
2023/03/14 08:20:40;;;;;;;6.32;1.25;;;5.00;99.90;;;;;;5030462;28;20048;-73
2023/03/14 08:23:05;;;;;;;6.45;1.30;;;4.90;99.90;;;;;;5048816;28;20394;-73
2023/03/14 08:25:32;;;;;;;2.90;0.90;;;5.00;99.90;;;;;;5069512;28;20035;-73
2023/03/14 08:27:57;;;;;;;9.15;0.73;;;5.00;99.90;;;;;;5068972;28;20047;-73
2023/03/14 08:30:23;;;;;;;5.50;1.23;;;5.10;99.90;;;;;;5030249;28;20055;-73
2023/03/14 08:32:53;;;;;;;5.22;1.08;;;5.10;99.90;;;;;;5068006;28;20366;-74
2023/03/14 08:35:19;;;;;;;8.93;1.30;;;5.10;99.90;;;;;;5018027;28;20125;-73
2023/03/14 08:37:45;;;;;;;6.63;0.90;;;5.10;99.90;;;;;;5063240;28;20409;-73
2023/03/14 08:40:11;;;;;;;5.88;0.80;;;5.10;99.90;;;;;;5059789;28;20439;-72
2023/03/14 08:42:39;;;;;;;4.35;1.13;;;5.20;99.90;;;;;;5046232;28;20036;-73
2023/03/14 08:45:06;;;;;;;6.57;0.98;;;5.20;99.90;;;;;;5069366;28;20134;-73
2023/03/14 08:47:32;;;;;;;6.03;1.40;;;5.30;99.90;;;;;;5052273;28;20105;-73
2023/03/14 08:49:58;;;;;;;6.82;1.00;;;5.30;99.90;;;;;;5046806;28;20056;-74
2023/03/14 08:52:27;;;;;;;6.68;1.00;;;5.30;99.90;;;;;;5016503;28;20039;-74
2023/03/14 08:54:52;;;;;;;6.68;0.80;;;5.40;99.90;;;;;;5010795;28;20036;-73
2023/03/14 08:57:18;;;;;;;4.53;1.02;;;5.40;99.90;;;;;;5077096;28;20066;-72
2023/03/14 08:59:44;;;;;;;6.70;1.42;;;5.40;99.90;;;;;;5044225;28;20067;-72
2023/03/14 09:02:13;;;;;;;8.30;1.20;;;5.40;99.90;;;;;;5047182;28;20478;-72
2023/03/14 09:04:39;;;;;;;6.72;1.00;;;5.40;99.90;;;;;;5092361;28;20066;-72
2023/03/14 09:07:05;;;;;;;7.20;1.50;;;5.50;99.90;;;;;;5071071;28;20047;-76
2023/03/14 09:09:31;;;;;;;10.50;1.85;;;5.60;99.90;;;;;;5073497;28;20040;-72
2023/03/14 09:11:57;;;;;;;8.48;2.00;;;5.70;99.90;;;;;;5014293;28;20122;-73
2023/03/14 09:14:23;;;;;;;7.60;1.40;;;5.70;99.90;;;;;;5080830;28;20371;-73
2023/03/14 09:16:50;;;;;;;8.50;1.63;;;5.80;99.90;;;;;;5064623;28;20046;-73
2023/03/14 09:19:16;;;;;;;11.02;2.22;;;5.80;99.90;;;;;;5094694;28;20055;-73
2023/03/14 09:21:42;;;;;;;8.95;2.00;;;5.90;99.90;;;;;;5034555;28;20040;-73
2023/03/14 09:24:07;;;;;;;9.07;2.20;;;5.90;99.90;;;;;;5098729;28;20074;-74
2023/03/14 09:26:33;;;;;;;12.00;2.65;;;5.90;99.90;;;;;;5058701;28;20837;-74
2023/03/14 09:28:59;;;;;;;12.63;2.33;;;6.10;99.90;;;;;;5057889;28;20387;-73
2023/03/14 09:31:29;;;;;;;13.98;3.03;;;6.10;99.90;;;;;;5031373;28;20039;-73
2023/03/14 09:33:55;;;;;;;11.88;2.85;;;6.10;99.90;;;;;;5063961;28;20469;-73
2023/03/14 09:36:21;;;;;;;15.63;3.70;;;6.00;99.90;;;;;;5067138;28;20036;-72
2023/03/14 09:38:47;;;;;;;14.52;3.42;;;6.00;99.90;;;;;;5060578;28;20040;-74
2023/03/14 09:41:27;;;;;;;15.85;3.92;;;6.10;99.90;;;;;;5047229;28;20564;-74
2023/03/14 09:44:01;;;;;;;;;;;6.20;99.90;;;;;;5076846;28;20044;-72
2023/03/14 09:46:28;;;;;;;13.98;2.92;;;6.20;99.90;;;;;;5094520;28;19924;-73
2023/03/14 09:48:54;;;;;;;20.13;3.88;;;6.40;99.90;;;;;;5064034;28;20080;-73
2023/03/14 09:51:24;;;;;;;15.07;3.13;;;6.50;99.90;;;;;;5044327;28;20494;-73
2023/03/14 09:53:51;;;;;;;17.23;3.13;;;6.50;99.90;;;;;;5081684;28;20072;-73
2023/03/14 09:56:22;;;;;;;19.13;3.83;;;6.50;99.90;;;;;;5087136;28;20047;-73
2023/03/14 09:59:04;;;;;;;18.30;3.75;;;6.60;99.90;;;;;;5073738;28;20036;-72
2023/03/14 10:01:33;;;;;;;15.55;4.18;;;6.60;99.90;;;;;;5057843;28;20044;-74
2023/03/14 10:04:10;;;;;;;20.90;3.80;;;6.50;99.90;;;;;;5066353;28;20040;-73
2023/03/14 10:06:36;;;;;;;17.45;3.47;;;6.50;99.90;;;;;;5066863;28;20056;-74
2023/03/14 10:09:03;;;;;;;17.02;4.13;;;6.50;99.90;;;;;;5064855;28;20046;-73
2023/03/14 10:11:29;;;;;;;15.60;4.25;;;6.50;99.90;;;;;;5056671;28;20525;-73
2023/03/14 10:14:00;;;;;;;21.95;4.55;;;6.50;99.90;;;;;;5050080;28;20385;-72
2023/03/14 10:16:35;;;;;;;20.52;4.18;;;6.50;99.90;;;;;;5086082;28;20044;-73
2023/03/14 10:19:13;;;;;;;17.40;4.60;;;6.50;99.90;;;;;;5066242;28;20498;-73
2023/03/14 10:21:49;;;;;;;18.35;4.00;;;6.60;99.90;;;;;;5064004;28;20047;-72
2023/03/14 10:24:26;;;;;;;20.98;4.20;;;6.60;99.90;;;;;;5066784;28;20047;-71
2023/03/14 10:27:04;;;;;;;21.50;4.28;;;6.60;99.90;;;;;;5068436;28;20075;-72
2023/03/14 10:29:31;;;;;;;21.20;4.38;;;6.60;99.90;;;;;;5067322;28;20052;-71
2023/03/14 10:32:02;;;;;;;21.70;4.30;;;6.60;99.90;;;;;;5048994;28;20093;-73
2023/03/14 10:34:34;;;;;;;21.67;4.32;;;6.60;99.90;;;;;;5070492;28;20560;-74
2023/03/14 10:37:25;;;;;;;20.83;4.13;;;6.60;99.90;;;;;;5060677;28;20470;-75
2023/03/14 10:39:53;;;;;;;17.60;4.05;;;6.60;99.90;;;;;;5056038;28;20477;-75
2023/03/14 10:42:25;;;;;;;21.00;4.15;;;6.60;99.90;;;;;;5066302;28;20048;-72
2023/03/14 10:44:57;;;;;;;17.25;4.15;;;6.60;99.90;;;;;;5059204;28;20564;-73
2023/03/14 10:47:28;;;;;;;15.50;4.00;;;6.60;99.90;;;;;;5052465;28;20047;-73
2023/03/14 10:49:57;;;;;;;19.13;3.72;;;6.60;99.90;;;;;;5061283;28;20593;-73
2023/03/14 10:52:25;;;;;;;15.17;4.00;;;6.70;99.90;;;;;;5050722;28;20430;-74
2023/03/14 10:55:01;;;;;;;18.92;3.85;;;6.80;99.90;;;;;;5065798;28;20363;-74
2023/03/14 10:57:27;;;;;;;14.10;2.90;;;7.00;99.90;;;;;;5060014;28;20117;-74
2023/03/14 10:59:56;;;;;;;17.00;4.45;;;7.00;97.30;;;;;;5050387;28;20064;-74
2023/03/14 11:02:34;;;;;;;18.38;3.95;;;7.00;96.20;;;;;;5063332;28;20119;-72
2023/03/14 11:05:24;;;;;;;16.10;3.20;;;7.00;96.60;;;;;;5066341;28;20509;-74
2023/03/14 11:07:54;;;;;;;14.50;3.42;;;6.90;95.70;;;;;;5046375;28;21116;-73
2023/03/14 11:10:42;;;;;;;13.48;3.10;;;7.00;97.50;;;;;;5064513;28;20048;-74
2023/03/14 11:13:16;;;;;;;14.88;3.03;;;7.00;99.50;;;;;;5050688;28;20493;-74
2023/03/14 11:15:51;;;;;;;15.80;3.50;;;7.20;96.40;;;;;;5064910;28;20166;-72
2023/03/14 11:18:33;;;;;;;15.63;2.80;;;7.30;96.60;;;;;;5070960;28;20075;-72
2023/03/14 11:21:32;;;;;;;13.60;2.90;;;7.30;92.60;;;;;;5059578;28;20402;-70
2023/03/14 11:24:26;;;;;;;13.82;3.17;;;7.20;91.00;;;;;;5009577;28;20055;-73
2023/03/14 11:27:21;;;;;;;14.30;3.30;;;7.10;92.30;;;;;;5066551;28;20639;-73
2023/03/14 11:30:19;;;;;;;12.02;2.92;;;7.10;90.50;;;;;;5012288;28;20055;-73
2023/03/14 11:32:47;;;;;;;12.50;2.40;;;7.10;88.10;;;;;;5066392;28;20166;-74
2023/03/14 11:35:29;;;;;;;11.52;2.78;;;7.20;88.00;;;;;;5062783;28;20627;-73
2023/03/14 11:38:10;;;;;;;10.30;2.47;;;7.20;89.20;;;;;;5066883;28;20093;-76
2023/03/14 11:40:38;;;;;;;11.95;2.88;;;7.50;84.80;;;;;;5060754;28;20561;-73
2023/03/14 11:43:13;;;;;;;11.25;2.80;;;7.60;83.80;;;;;;5047764;28;21394;-75
2023/03/14 11:45:41;;;;;;;11.30;2.70;;;7.70;83.70;;;;;;5048144;28;20401;-75
2023/03/14 11:48:14;;;;;;;12.20;2.67;;;7.50;85.60;;;;;;5052215;28;20094;-73
2023/03/14 11:50:42;;;;;;;10.00;2.35;;;7.40;88.00;;;;;;5051645;28;20508;-74
2023/03/14 11:53:14;;;;;;;10.10;2.45;;;7.30;83.80;;;;;;5044317;28;20182;-73
2023/03/14 11:55:43;;;;;;;10.82;2.10;;;7.30;84.80;;;;;;5079915;28;20196;-73
2023/03/14 11:58:18;;;;;;;9.75;2.10;;;7.20;85.10;;;;;;5058186;28;20373;-73
2023/03/14 12:00:47;;;;;;;8.85;2.10;;;7.40;85.00;;;;;;5067895;28;20579;-74
2023/03/14 12:03:56;;;;;;;9.18;1.92;;;7.60;80.10;;;;;;5048048;28;20114;-75
2023/03/14 12:06:32;;;;;;;7.03;1.40;;;7.70;78.20;;;;;;5044744;28;20134;-74
2023/03/14 12:09:01;;;;;;;8.07;1.98;;;7.80;73.50;;;;;;5049620;28;20127;-73
2023/03/14 12:11:47;;;;;;;10.32;1.92;;;7.80;73.50;;;;;;5065159;28;20043;-74
2023/03/14 12:14:26;;;;;;;8.63;1.85;;;7.80;73.80;;;;;;5054852;28;20040;-72
2023/03/14 12:17:05;;;;;;;7.47;1.83;;;7.80;76.00;;;;;;5063545;28;20079;-76
2023/03/14 12:19:41;;;;;;;6.85;1.65;;;7.70;70.60;;;;;;5049661;28;20044;-73
2023/03/14 12:22:26;;;;;;;5.78;1.50;;;7.60;70.20;;;;;;5060814;28;20110;-72
2023/03/14 12:25:00;;;;;;;6.80;1.70;;;7.50;71.50;;;;;;5051577;28;20051;-74
2023/03/14 12:28:16;;;;;;;7.57;2.10;;;7.60;72.20;;;;;;5066346;28;20053;-75
2023/03/14 12:30:42;;;;;;;7.38;1.52;;;7.80;74.80;;;;;;5025813;28;20048;-75
2023/03/14 12:33:16;;;;;;;7.68;1.60;;;7.90;72.00;;;;;;5034303;28;20176;-74
2023/03/14 12:35:44;;;;;;;8.98;2.00;;;7.80;72.90;;;;;;5094350;28;20044;-74
2023/03/14 12:38:35;;;;;;;7.70;1.58;;;7.80;72.20;;;;;;5052480;28;20044;-74
2023/03/14 12:41:08;;;;;;;4.45;1.13;;;7.70;73.00;;;;;;5019430;28;20056;-74
2023/03/14 12:43:35;;;;;;;9.57;2.33;;;7.60;71.10;;;;;;5048284;28;20106;-75
2023/03/14 12:46:26;;;;;;;8.63;1.60;;;7.50;74.50;;;;;;5070838;28;20578;-75
2023/03/14 12:49:02;;;;;;;7.25;1.67;;;7.50;73.50;;;;;;5052301;28;20040;-74
2023/03/14 12:51:37;;;;;;;7.72;1.42;;;7.50;74.50;;;;;;5096247;27;20118;-74
2023/03/14 12:54:16;;;;;;;7.55;1.75;;;7.60;72.30;;;;;;5058884;28;20041;-74
2023/03/14 12:57:00;;;;;;;6.68;1.90;;;7.60;71.20;;;;;;5058082;28;20111;-74
2023/03/14 12:59:29;;;;;;;6.38;1.90;;;7.50;70.70;;;;;;5043693;28;20068;-75